Time;durP1;ratioP1;P1;durP2;ratioP2;P2;SDS_P1;SDS_P2;PMS_P1;PMS_P2;Temp;Humidity;BMP_temperature;BMP_pressure;BME280_temperature;BME280_humidity;BME280_pressure;Samples;Min_cycle;Max_cycle;Signal;HPM_P1;HPM_P2
2022/08/22 00:00:12;;;;;;;1.33;1.00;;;15.30;99.90;;;;;;5080005;28;21096;-83
2022/08/22 00:02:54;;;;;;;2.20;1.47;;;15.20;99.90;;;;;;5079685;28;20556;-87
2022/08/22 00:05:31;;;;;;;1.93;1.83;;;15.30;99.90;;;;;;5080398;28;20448;-83
2022/08/22 00:08:07;;;;;;;4.60;2.10;;;15.30;99.90;;;;;;5080123;28;20458;-83
2022/08/22 00:10:50;;;;;;;2.10;1.90;;;15.30;99.90;;;;;;5086449;28;20453;-83
2022/08/22 00:13:23;;;;;;;2.40;2.10;;;15.30;99.90;;;;;;5083296;28;20448;-83
2022/08/22 00:15:57;;;;;;;2.03;1.80;;;15.30;99.90;;;;;;5078585;28;20461;-82
2022/08/22 00:18:32;;;;;;;2.40;1.57;;;15.30;99.90;;;;;;5082413;28;20455;-84
2022/08/22 00:21:08;;;;;;;2.40;1.90;;;15.30;99.90;;;;;;5083876;28;20578;-86
2022/08/22 00:23:43;;;;;;;1.87;1.70;;;15.30;99.90;;;;;;5083700;28;20560;-83
2022/08/22 00:26:23;;;;;;;4.07;2.27;;;15.20;99.90;;;;;;5086483;28;20529;-86
2022/08/22 00:28:56;;;;;;;2.60;2.20;;;15.30;99.90;;;;;;5078829;28;20467;-83
2022/08/22 00:31:30;;;;;;;2.30;1.73;;;15.30;99.90;;;;;;5079880;28;20482;-85
2022/08/22 00:34:02;;;;;;;2.50;2.23;;;15.20;99.90;;;;;;5087372;28;20452;-85
2022/08/22 00:36:37;;;;;;;5.20;2.40;;;15.20;99.90;;;;;;5081749;28;20526;-83
2022/08/22 00:39:14;;;;;;;3.60;2.30;;;15.10;99.90;;;;;;5081917;28;20504;-84
2022/08/22 00:42:08;;;;;;;2.53;2.27;;;15.10;99.90;;;;;;5085512;28;21017;-87
2022/08/22 00:45:12;;;;;;;4.13;1.80;;;15.20;99.90;;;;;;5080172;28;21156;-86
2022/08/22 00:47:49;;;;;;;3.80;2.87;;;15.10;99.90;;;;;;5081242;28;20442;-84
2022/08/22 00:50:45;;;;;;;2.77;2.53;;;15.20;99.90;;;;;;5079903;28;20968;-83
2022/08/22 00:53:31;;;;;;;3.40;2.87;;;15.20;99.90;;;;;;5078969;28;20767;-82
2022/08/22 00:56:17;;;;;;;2.30;2.10;;;15.30;99.90;;;;;;5080682;28;21001;-87
2022/08/22 00:59:06;;;;;;;2.10;1.83;;;15.20;99.90;;;;;;5078491;28;20446;-84
2022/08/22 01:01:37;;;;;;;3.17;2.33;;;15.20;99.90;;;;;;5081608;28;20497;-84
2022/08/22 01:04:27;;;;;;;5.40;2.27;;;15.20;99.90;;;;;;5080624;28;20978;-84
2022/08/22 01:07:09;;;;;;;1.47;1.33;;;15.10;99.90;;;;;;5077916;28;20464;-84
2022/08/22 01:09:46;;;;;;;2.90;2.20;;;15.30;99.90;;;;;;5082089;28;20481;-84
2022/08/22 01:12:41;;;;;;;2.63;1.47;;;15.20;99.90;;;;;;5075997;28;20491;-84
2022/08/22 01:15:14;;;;;;;1.37;1.17;;;15.20;99.90;;;;;;5085034;28;20458;-85
2022/08/22 01:17:55;;;;;;;3.63;1.90;;;15.10;99.90;;;;;;5079755;28;20442;-85
2022/08/22 01:21:13;;;;;;;4.17;2.07;;;15.10;99.90;;;;;;5077796;28;20989;-85
2022/08/22 01:24:09;;;;;;;2.60;1.97;;;15.10;99.90;;;;;;5081259;28;20454;-88
2022/08/22 01:27:25;;;;;;;2.73;2.00;;;15.10;99.90;;;;;;5055902;28;20463;-84
2022/08/22 01:30:20;;;;;;;2.47;2.20;;;15.10;99.90;;;;;;5054000;28;20886;-84
2022/08/22 01:33:32;;;;;;;3.70;2.00;;;15.00;99.90;;;;;;5075766;28;20466;-86
2022/08/22 01:36:29;;;;;;;4.10;1.73;;;15.10;99.90;;;;;;5079144;28;20449;-82
2022/08/22 01:39:30;;;;;;;2.00;1.77;;;15.10;99.90;;;;;;5086452;28;20481;-84
2022/08/22 01:42:14;;;;;;;3.50;2.20;;;15.10;99.90;;;;;;5084531;28;20949;-83
2022/08/22 01:45:09;;;;;;;4.30;2.03;;;15.10;99.90;;;;;;5082060;28;20582;-84
2022/08/22 01:47:42;;;;;;;2.80;2.50;;;15.10;99.90;;;;;;5089625;28;20447;-83
2022/08/22 01:50:21;;;;;;;2.73;2.33;;;15.10;99.90;;;;;;5082676;28;20574;-84
2022/08/22 01:52:58;;;;;;;5.23;3.40;;;15.10;99.90;;;;;;5082789;28;20961;-84
2022/08/22 01:55:32;;;;;;;2.17;1.90;;;15.10;99.90;;;;;;5078267;28;21133;-82
2022/08/22 01:58:02;;;;;;;4.40;2.73;;;15.10;99.90;;;;;;5084389;28;20539;-83
2022/08/22 02:00:49;;;;;;;3.03;2.20;;;15.20;99.90;;;;;;5076399;28;20477;-83
2022/08/22 02:03:24;;;;;;;4.00;3.10;;;15.10;99.90;;;;;;5080503;28;20477;-84
2022/08/22 02:06:00;;;;;;;3.20;1.63;;;15.20;99.90;;;;;;5081441;28;20531;-85
2022/08/22 02:08:44;;;;;;;5.20;3.53;;;15.20;99.90;;;;;;5082061;28;20454;-85
2022/08/22 02:11:31;;;;;;;5.43;2.80;;;15.20;99.90;;;;;;5080993;28;20555;-86
2022/08/22 02:14:05;;;;;;;3.77;3.17;;;15.30;99.90;;;;;;5083413;28;20503;-84
2022/08/22 02:16:36;;;;;;;5.70;3.40;;;15.20;99.90;;;;;;5078299;28;20502;-84
2022/08/22 02:19:21;;;;;;;4.40;3.40;;;15.30;99.90;;;;;;5075708;28;20450;-87
2022/08/22 02:21:54;;;;;;;5.87;5.27;;;15.30;99.90;;;;;;5078613;28;20485;-84
2022/08/22 02:24:40;;;;;;;6.63;4.07;;;15.20;99.90;;;;;;5080909;28;20457;-84
2022/08/22 02:27:16;;;;;;;4.60;3.20;;;15.30;99.90;;;;;;5082680;28;20443;-84
2022/08/22 02:29:48;;;;;;;6.00;3.73;;;15.20;99.90;;;;;;5083116;28;20471;-84
2022/08/22 02:32:24;;;;;;;4.73;3.77;;;15.20;99.90;;;;;;5082024;28;20448;-86
2022/08/22 02:35:00;;;;;;;4.70;3.10;;;15.30;99.90;;;;;;5079559;28;20484;-84
2022/08/22 02:37:38;;;;;;;6.87;3.90;;;15.20;99.90;;;;;;5079708;28;20533;-84
2022/08/22 02:40:16;;;;;;;5.17;4.67;;;15.30;99.90;;;;;;5076894;28;20595;-84
2022/08/22 02:42:49;;;;;;;4.87;3.70;;;15.30;99.90;;;;;;5086162;28;20493;-84
2022/08/22 02:45:24;;;;;;;4.67;4.17;;;15.20;99.90;;;;;;5083362;28;20486;-86
2022/08/22 02:47:58;;;;;;;3.73;3.43;;;15.20;99.90;;;;;;5077157;28;20468;-84
2022/08/22 02:50:34;;;;;;;4.53;3.20;;;15.20;99.90;;;;;;5085684;28;20452;-83
2022/08/22 02:53:09;;;;;;;3.90;3.37;;;15.30;99.90;;;;;;5075521;28;20510;-86
2022/08/22 02:55:51;;;;;;;4.73;4.20;;;15.30;99.90;;;;;;5087857;28;20491;-86
2022/08/22 02:58:26;;;;;;;4.27;3.17;;;15.30;99.90;;;;;;5078136;28;20496;-85
2022/08/22 03:01:23;;;;;;;5.30;4.03;;;15.30;99.90;;;;;;5080001;28;20492;-84
2022/08/22 03:03:52;;;;;;;5.33;4.53;;;15.30;99.90;;;;;;5082516;28;20462;-84
2022/08/22 03:06:38;;;;;;;6.43;3.17;;;15.30;99.90;;;;;;5075680;28;20483;-86
2022/08/22 03:09:23;;;;;;;5.70;3.17;;;15.30;99.90;;;;;;5084207;28;20508;-83
2022/08/22 03:12:01;;;;;;;7.83;3.83;;;15.30;99.90;;;;;;5079679;28;20990;-83
2022/08/22 03:14:34;;;;;;;6.07;4.30;;;15.40;99.90;;;;;;5076904;28;20452;-84
2022/08/22 03:17:10;;;;;;;4.47;3.00;;;15.30;99.90;;;;;;5076780;28;20441;-86
2022/08/22 03:19:53;;;;;;;4.47;3.50;;;15.30;99.90;;;;;;5077784;28;20470;-86
2022/08/22 03:22:27;;;;;;;4.47;4.07;;;15.30;99.90;;;;;;5075944;28;20492;-84
2022/08/22 03:24:59;;;;;;;6.60;3.90;;;15.20;99.90;;;;;;5081205;28;20453;-84
2022/08/22 03:27:35;;;;;;;5.80;4.33;;;15.20;99.90;;;;;;5087329;28;20445;-86
2022/08/22 03:30:10;;;;;;;4.70;3.70;;;15.10;99.90;;;;;;5078356;28;20465;-84
2022/08/22 03:32:54;;;;;;;5.27;3.17;;;15.10;99.90;;;;;;5081893;28;20817;-85
2022/08/22 03:35:39;;;;;;;2.80;2.60;;;15.10;99.90;;;;;;5076052;28;20542;-87
2022/08/22 03:38:17;;;;;;;4.67;3.47;;;15.00;99.90;;;;;;5072225;28;20458;-84
2022/08/22 03:41:02;;;;;;;7.27;4.40;;;15.10;99.90;;;;;;5075610;28;20935;-83
2022/08/22 03:43:59;;;;;;;5.10;4.10;;;15.10;99.90;;;;;;5046205;28;20485;-84
2022/08/22 03:47:10;;;;;;;5.23;4.27;;;15.00;99.90;;;;;;5079333;28;20498;-84
2022/08/22 03:50:32;;;;;;;5.50;2.90;;;15.10;99.90;;;;;;5051772;28;20957;-86
2022/08/22 03:53:44;;;;;;;5.23;3.40;;;15.00;99.90;;;;;;5075954;28;20446;-84
2022/08/22 03:56:43;;;;;;;4.27;3.57;;;15.10;99.90;;;;;;5078389;28;20829;-84
2022/08/22 03:59:58;;;;;;;3.77;2.70;;;15.00;99.90;;;;;;5076997;28;20500;-83
2022/08/22 04:02:49;;;;;;;5.83;4.10;;;15.00;99.90;;;;;;5057148;28;21125;-84
2022/08/22 04:05:55;;;;;;;4.40;3.10;;;15.00;99.90;;;;;;5076530;28;20529;-86
2022/08/22 04:08:52;;;;;;;5.73;3.67;;;15.10;99.90;;;;;;5080068;28;20533;-84
2022/08/22 04:12:12;;;;;;;3.53;3.03;;;15.10;99.90;;;;;;5082347;28;20511;-84
2022/08/22 04:14:59;;;;;;;4.07;3.50;;;15.10;99.90;;;;;;5079517;28;20849;-84
2022/08/22 04:17:42;;;;;;;4.30;2.63;;;15.00;99.90;;;;;;5077296;28;20513;-86
2022/08/22 04:20:30;;;;;;;3.60;3.30;;;15.10;99.90;;;;;;5075329;28;20520;-84
2022/08/22 04:23:23;;;;;;;3.43;3.10;;;15.10;99.90;;;;;;5072352;28;20448;-84
2022/08/22 04:25:57;;;;;;;5.77;4.73;;;15.10;99.90;;;;;;5078757;28;20465;-85
2022/08/22 04:28:34;;;;;;;3.80;3.47;;;15.10;99.90;;;;;;5077056;28;20962;-84
2022/08/22 04:31:08;;;;;;;5.90;4.47;;;15.10;99.90;;;;;;5084427;28;20452;-84
2022/08/22 04:33:40;;;;;;;7.27;4.17;;;15.20;99.90;;;;;;5082107;28;20466;-86
2022/08/22 04:36:12;;;;;;;5.23;3.37;;;15.20;99.90;;;;;;5081086;28;20522;-84
2022/08/22 04:38:46;;;;;;;4.33;3.77;;;15.10;99.90;;;;;;5083483;28;20455;-84
2022/08/22 04:41:18;;;;;;;4.43;3.00;;;15.10;99.90;;;;;;5087155;28;20494;-85
2022/08/22 04:43:50;;;;;;;6.10;3.43;;;15.20;99.90;;;;;;5087332;28;20473;-88
2022/08/22 04:46:32;;;;;;;7.07;4.73;;;15.10;99.90;;;;;;5081949;28;20522;-84
2022/08/22 04:49:04;;;;;;;3.77;3.43;;;15.20;99.90;;;;;;5080279;28;20991;-83
2022/08/22 04:51:38;;;;;;;4.90;4.30;;;15.20;99.90;;;;;;5087588;28;20987;-84
2022/08/22 04:54:19;;;;;;;4.33;3.47;;;15.20;99.90;;;;;;5083276;28;20448;-83
2022/08/22 04:56:59;;;;;;;4.17;3.80;;;15.20;99.90;;;;;;5076725;28;20444;-85
2022/08/22 04:59:29;;;;;;;6.90;4.17;;;15.30;99.90;;;;;;5079492;28;20470;-85
2022/08/22 05:02:04;;;;;;;6.63;3.67;;;15.30;99.90;;;;;;5067933;28;20545;-85
2022/08/22 05:04:36;;;;;;;6.60;4.20;;;15.30;99.90;;;;;;5068656;28;21259;-83
2022/08/22 05:07:08;;;;;;;4.70;3.97;;;15.40;99.90;;;;;;5080382;28;20461;-89
2022/08/22 05:09:41;;;;;;;4.93;4.13;;;15.30;99.90;;;;;;5079888;28;21197;-83
2022/08/22 05:12:13;;;;;;;5.17;4.67;;;15.40;99.90;;;;;;5075157;28;20465;-82
2022/08/22 05:14:44;;;;;;;6.73;4.83;;;15.50;99.90;;;;;;5068510;28;20464;-86
2022/08/22 05:17:18;;;;;;;3.00;2.80;;;15.50;99.90;;;;;;5070697;28;20469;-86
2022/08/22 05:19:50;;;;;;;5.40;4.60;;;15.60;99.90;;;;;;5068346;28;20897;-83
2022/08/22 05:22:21;;;;;;;3.90;3.40;;;15.60;99.90;;;;;;5075958;28;20491;-84
2022/08/22 05:24:51;;;;;;;5.73;4.97;;;15.60;99.90;;;;;;5074549;28;20863;-86
2022/08/22 05:27:23;;;;;;;4.23;3.73;;;15.60;99.90;;;;;;5067159;28;20468;-83
2022/08/22 05:29:54;;;;;;;7.60;5.00;;;15.50;99.90;;;;;;5081468;28;20986;-82
2022/08/22 05:32:30;;;;;;;4.37;3.97;;;15.60;99.90;;;;;;5075673;28;20454;-82
2022/08/22 05:35:01;;;;;;;8.33;4.67;;;15.60;99.90;;;;;;5080555;28;20554;-83
2022/08/22 05:37:40;;;;;;;5.27;4.30;;;15.60;99.90;;;;;;5073271;28;20556;-82
2022/08/22 05:40:10;;;;;;;4.47;3.67;;;15.60;99.90;;;;;;5084703;28;20448;-83
2022/08/22 05:42:37;;;;;;;7.40;4.53;;;15.70;99.90;;;;;;5075132;28;20496;-82
2022/08/22 05:45:08;;;;;;;4.50;4.10;;;15.80;99.90;;;;;;5068422;28;20489;-86
2022/08/22 05:47:40;;;;;;;5.33;3.20;;;15.80;99.90;;;;;;5078231;28;20540;-88
2022/08/22 05:50:12;;;;;;;6.03;4.10;;;15.90;99.90;;;;;;5078319;28;20444;-86
2022/08/22 05:52:53;;;;;;;5.73;4.60;;;15.90;99.90;;;;;;5070832;28;20477;-86
2022/08/22 05:55:26;;;;;;;3.33;3.00;;;15.90;99.90;;;;;;5068595;28;20465;-84
2022/08/22 05:58:13;;;;;;;6.63;5.13;;;16.00;99.90;;;;;;5070530;28;20457;-84
2022/08/22 06:00:43;;;;;;;4.43;3.77;;;16.00;99.90;;;;;;5067379;28;20814;-84
2022/08/22 06:03:18;;;;;;;4.57;3.70;;;16.00;99.90;;;;;;5070708;28;20527;-84
2022/08/22 06:05:52;;;;;;;4.30;3.33;;;16.10;99.90;;;;;;5077386;28;20970;-84
2022/08/22 06:08:24;;;;;;;5.40;4.13;;;16.20;99.90;;;;;;5072779;28;20498;-85
2022/08/22 06:10:55;;;;;;;4.70;3.53;;;16.20;99.90;;;;;;5087685;28;20472;-88
2022/08/22 06:13:31;;;;;;;6.00;3.77;;;16.30;99.90;;;;;;5086194;28;20446;-86
2022/08/22 06:16:07;;;;;;;2.83;2.60;;;16.40;99.90;;;;;;5080681;28;20473;-81
2022/08/22 06:18:38;;;;;;;5.73;2.27;;;16.50;99.90;;;;;;5079272;28;20520;-85
2022/08/22 06:21:09;;;;;;;3.50;3.20;;;16.60;99.90;;;;;;5069496;28;20518;-83
2022/08/22 06:23:40;;;;;;;4.00;3.67;;;16.70;99.90;;;;;;5069806;28;20451;-83
2022/08/22 06:26:10;;;;;;;2.90;2.70;;;16.60;99.90;;;;;;5068527;28;20450;-83
2022/08/22 06:28:40;;;;;;;3.27;2.97;;;16.70;99.90;;;;;;5068256;28;20466;-82
2022/08/22 06:31:11;;;;;;;3.03;2.63;;;16.80;99.90;;;;;;5073325;28;20450;-82
2022/08/22 06:33:41;;;;;;;4.10;3.40;;;16.90;99.90;;;;;;5066573;28;20466;-82
2022/08/22 06:36:32;;;;;;;3.80;2.93;;;17.10;99.90;;;;;;5067302;28;20444;-82
2022/08/22 06:39:07;;;;;;;4.27;2.53;;;17.10;99.90;;;;;;5067855;28;20513;-83
2022/08/22 06:41:40;;;;;;;3.90;3.47;;;17.10;99.90;;;;;;5072541;28;20482;-85
2022/08/22 06:44:11;;;;;;;3.13;2.83;;;17.10;99.90;;;;;;5075039;28;20552;-81
2022/08/22 06:46:39;;;;;;;3.97;3.30;;;17.10;99.90;;;;;;5079917;28;20464;-82
2022/08/22 06:49:09;;;;;;;4.40;2.67;;;17.10;99.90;;;;;;5077848;28;20474;-82
2022/08/22 06:51:37;;;;;;;3.20;3.00;;;17.10;99.90;;;;;;5075999;28;20477;-83
2022/08/22 06:54:11;;;;;;;3.03;2.83;;;17.10;99.90;;;;;;5078679;28;20448;-83
2022/08/22 06:56:41;;;;;;;3.97;2.37;;;17.20;99.90;;;;;;5080263;28;20445;-82
2022/08/22 06:59:13;;;;;;;4.30;2.10;;;17.30;99.90;;;;;;5081123;28;20468;-85
2022/08/22 07:01:46;;;;;;;2.30;2.20;;;17.40;99.90;;;;;;5081880;28;20481;-84
2022/08/22 07:04:15;;;;;;;3.20;2.97;;;17.40;99.90;;;;;;5083050;28;20936;-86
2022/08/22 07:06:48;;;;;;;3.10;2.87;;;17.60;99.90;;;;;;5075731;28;20542;-85
2022/08/22 07:09:23;;;;;;;1.87;1.73;;;17.70;99.90;;;;;;5074911;28;20470;-83
2022/08/22 07:11:52;;;;;;;2.00;1.90;;;17.80;99.90;;;;;;5069044;28;20554;-83
2022/08/22 07:14:26;;;;;;;2.73;2.00;;;17.90;99.90;;;;;;5066762;28;20454;-85
2022/08/22 07:16:56;;;;;;;1.80;1.70;;;18.10;99.90;;;;;;5073407;28;20483;-83
2022/08/22 07:19:28;;;;;;;2.37;1.97;;;18.20;99.90;;;;;;5065513;28;20468;-83
2022/08/22 07:21:56;;;;;;;2.10;1.90;;;18.40;99.90;;;;;;5068042;28;20479;-83
2022/08/22 07:24:28;;;;;;;6.50;1.70;;;18.70;99.90;;;;;;5066488;28;20555;-85
2022/08/22 07:27:07;;;;;;;7.80;2.13;;;19.00;99.90;;;;;;5066102;28;20459;-83
2022/08/22 07:29:44;;;;;;;1.50;1.40;;;19.00;99.90;;;;;;5070216;28;20463;-83
2022/08/22 07:32:16;;;;;;;1.30;1.20;;;19.10;99.90;;;;;;5078271;28;20945;-83
2022/08/22 07:35:01;;;;;;;1.70;1.20;;;19.30;99.90;;;;;;5082875;28;20443;-83
2022/08/22 07:37:41;;;;;;;1.93;1.20;;;19.30;99.90;;;;;;5077805;28;20502;-89
2022/08/22 07:40:18;;;;;;;5.30;1.40;;;19.30;99.90;;;;;;5073033;28;20526;-83
2022/08/22 07:42:51;;;;;;;2.00;1.80;;;19.20;99.90;;;;;;5066983;28;20859;-84
2022/08/22 07:45:26;;;;;;;2.20;1.50;;;19.10;99.90;;;;;;5068757;28;20518;-83
2022/08/22 07:48:08;;;;;;;2.50;2.30;;;19.10;99.90;;;;;;5068171;28;20513;-83
2022/08/22 07:50:42;;;;;;;1.63;1.10;;;19.00;99.90;;;;;;5065822;28;20446;-83
2022/08/22 07:53:19;;;;;;;1.60;1.50;;;18.70;99.90;;;;;;5072721;28;20470;-83
2022/08/22 07:55:47;;;;;;;3.43;1.73;;;18.60;99.90;;;;;;5065982;28;20471;-85
2022/08/22 07:58:15;;;;;;;1.73;1.57;;;18.60;99.90;;;;;;5066179;28;20474;-86
2022/08/22 08:00:45;;;;;;;3.90;2.30;;;18.60;99.90;;;;;;5073841;28;20562;-85
2022/08/22 08:03:12;;;;;;;3.63;3.33;;;18.70;99.90;;;;;;5064468;28;21196;-85
2022/08/22 08:05:44;;;;;;;2.70;2.50;;;18.70;99.90;;;;;;5083591;28;20971;-87
2022/08/22 08:08:19;;;;;;;2.67;2.40;;;18.80;99.90;;;;;;5076025;28;20550;-84
2022/08/22 08:10:49;;;;;;;5.33;4.60;;;18.90;99.90;;;;;;5084411;28;20485;-88
2022/08/22 08:13:23;;;;;;;4.90;3.37;;;18.90;99.90;;;;;;5083388;28;20542;-83
2022/08/22 08:15:51;;;;;;;5.90;4.33;;;19.00;99.90;;;;;;5071633;28;20465;-83
2022/08/22 08:18:24;;;;;;;2.17;1.97;;;19.00;99.90;;;;;;5079399;28;20466;-87
2022/08/22 08:20:55;;;;;;;1.83;1.73;;;19.10;99.90;;;;;;5069105;28;20544;-86
2022/08/22 08:23:23;;;;;;;15.17;12.33;;;19.10;99.90;;;;;;5078947;28;20487;-82
2022/08/22 08:26:00;;;;;;;23.93;12.07;;;19.20;99.90;;;;;;5068911;28;20454;-82
2022/08/22 08:28:36;;;;;;;4.00;3.70;;;19.10;99.90;;;;;;5080716;28;20461;-84
2022/08/22 08:31:13;;;;;;;1.73;1.60;;;19.00;99.90;;;;;;5072291;28;21298;-86
2022/08/22 08:33:44;;;;;;;1.80;1.70;;;19.00;99.90;;;;;;5070073;28;20464;-80
2022/08/22 08:36:26;;;;;;;1.80;1.37;;;19.00;99.90;;;;;;5077208;28;20910;-81
2022/08/22 08:38:58;;;;;;;2.73;1.70;;;19.20;99.90;;;;;;5077766;28;20459;-79
2022/08/22 08:42:02;;;;;;;3.30;3.00;;;19.00;99.90;;;;;;5072177;28;21545;-80
2022/08/22 08:45:03;;;;;;;2.40;2.20;;;18.80;99.90;;;;;;4986323;28;20486;-80
2022/08/22 08:47:48;;;;;;;2.00;1.60;;;18.80;99.90;;;;;;5070868;28;20455;-84
2022/08/22 08:50:30;;;;;;;2.10;1.83;;;18.60;99.90;;;;;;5072247;28;20463;-83
2022/08/22 08:53:25;;;;;;;2.80;2.17;;;18.60;99.90;;;;;;5074736;28;21158;-82
2022/08/22 08:55:58;;;;;;;4.70;1.70;;;18.50;99.90;;;;;;5076395;28;20467;-84
2022/08/22 08:58:42;;;;;;;8.73;2.23;;;18.50;99.90;;;;;;5076431;28;20827;-82
2022/08/22 09:01:33;;;;;;;2.60;1.60;;;18.30;99.90;;;;;;5080887;28;21459;-82
2022/08/22 09:04:29;;;;;;;2.10;2.00;;;18.30;99.90;;;;;;5071170;28;20497;-80
2022/08/22 09:07:31;;;;;;;3.17;2.53;;;18.10;99.90;;;;;;5071664;28;20468;-81
2022/08/22 09:10:15;;;;;;;1.27;1.17;;;18.10;99.90;;;;;;5077866;28;20508;-80
2022/08/22 09:12:59;;;;;;;2.20;2.03;;;18.00;99.90;;;;;;5083814;28;20501;-80
2022/08/22 09:15:41;;;;;;;3.57;2.20;;;18.00;99.90;;;;;;5079027;28;20610;-80
2022/08/22 09:18:33;;;;;;;3.00;2.80;;;17.90;99.90;;;;;;5079294;28;20459;-80
2022/08/22 09:21:44;;;;;;;2.67;1.97;;;17.90;99.90;;;;;;5075112;28;20486;-85
2022/08/22 09:24:35;;;;;;;3.67;2.87;;;17.80;99.90;;;;;;5040747;28;20486;-80
2022/08/22 09:27:09;;;;;;;3.00;2.80;;;18.20;99.90;;;;;;5073847;28;20464;-80
2022/08/22 09:29:42;;;;;;;6.90;3.03;;;18.60;99.90;;;;;;5069769;28;20479;-81
2022/08/22 09:32:18;;;;;;;3.73;2.30;;;18.80;99.90;;;;;;5072272;28;20478;-83
2022/08/22 09:35:06;;;;;;;2.40;2.23;;;19.00;99.90;;;;;;5067151;28;20958;-81
2022/08/22 09:37:48;;;;;;;2.30;2.10;;;19.10;99.90;;;;;;5066273;28;20463;-80
2022/08/22 09:40:23;;;;;;;6.87;1.77;;;19.00;99.90;;;;;;5070771;28;20466;-81
2022/08/22 09:43:01;;;;;;;6.50;1.77;;;19.20;99.90;;;;;;5068060;28;20500;-80
2022/08/22 09:45:59;;;;;;;3.23;1.87;;;19.30;99.90;;;;;;5075203;28;20548;-83
2022/08/22 09:48:38;;;;;;;2.50;2.03;;;19.30;99.90;;;;;;5065714;28;20461;-80
2022/08/22 09:51:14;;;;;;;2.10;2.00;;;19.30;99.90;;;;;;5068460;28;20492;-80
2022/08/22 09:53:55;;;;;;;2.97;2.13;;;19.10;99.90;;;;;;5072423;28;20471;-80
2022/08/22 09:56:29;;;;;;;1.67;1.57;;;18.90;99.90;;;;;;5079007;28;20461;-81
2022/08/22 09:59:02;;;;;;;2.10;2.00;;;18.80;99.90;;;;;;5070317;28;20486;-80
2022/08/22 10:01:35;;;;;;;2.33;1.60;;;18.80;99.90;;;;;;5073981;28;20462;-84
2022/08/22 10:04:35;;;;;;;2.80;1.53;;;18.80;99.90;;;;;;5068996;28;20514;-80
2022/08/22 10:07:13;;;;;;;1.70;1.60;;;18.70;99.90;;;;;;5074499;28;20464;-82
2022/08/22 10:09:49;;;;;;;1.60;1.40;;;18.60;99.90;;;;;;5081942;28;20472;-80
2022/08/22 10:12:26;;;;;;;1.70;1.40;;;18.70;99.90;;;;;;5077092;28;20455;-82
2022/08/22 10:15:10;;;;;;;2.17;1.97;;;18.70;99.90;;;;;;5072292;28;20484;-82
2022/08/22 10:17:45;;;;;;;3.27;1.80;;;18.70;99.90;;;;;;5080908;28;20447;-81
2022/08/22 10:20:19;;;;;;;1.43;1.33;;;18.80;99.90;;;;;;5082680;28;20451;-80
2022/08/22 10:22:58;;;;;;;1.77;1.67;;;18.70;99.90;;;;;;5073978;28;20490;-80
2022/08/22 10:25:34;;;;;;;5.10;2.37;;;18.60;99.90;;;;;;5066964;28;20455;-80
2022/08/22 10:28:24;;;;;;;2.13;1.80;;;18.80;99.90;;;;;;5069551;28;20550;-80
2022/08/22 10:31:01;;;;;;;1.80;1.27;;;19.00;99.90;;;;;;5071964;28;20533;-83
2022/08/22 10:33:34;;;;;;;1.57;1.23;;;19.00;99.90;;;;;;5077226;28;20827;-81
2022/08/22 10:36:07;;;;;;;2.30;1.43;;;19.20;99.90;;;;;;5076911;28;20512;-82
2022/08/22 10:38:40;;;;;;;1.90;1.43;;;19.10;99.90;;;;;;5071829;28;20538;-81
2022/08/22 10:41:14;;;;;;;2.07;1.97;;;19.30;99.90;;;;;;5073624;28;20505;-85
2022/08/22 10:43:48;;;;;;;2.30;1.57;;;19.40;99.90;;;;;;5067767;28;20491;-81
2022/08/22 10:46:21;;;;;;;1.77;1.67;;;19.40;99.90;;;;;;5072517;28;20549;-82
2022/08/22 10:48:52;;;;;;;6.23;1.37;;;19.40;99.90;;;;;;5073290;28;20851;-81
2022/08/22 10:51:32;;;;;;;1.23;1.10;;;19.40;99.90;;;;;;5081846;28;20463;-81
2022/08/22 10:54:21;;;;;;;1.23;1.13;;;19.10;99.90;;;;;;5072314;28;20550;-83
2022/08/22 10:56:55;;;;;;;1.10;0.93;;;19.10;99.90;;;;;;5065791;28;20446;-81
2022/08/22 10:59:36;;;;;;;1.60;1.50;;;18.80;99.90;;;;;;5067578;28;20467;-83
2022/08/22 11:02:25;;;;;;;4.03;1.00;;;19.00;99.90;;;;;;5081016;28;20543;-81
2022/08/22 11:05:13;;;;;;;1.50;1.40;;;19.00;99.90;;;;;;5072714;28;20460;-81
2022/08/22 11:07:48;;;;;;;1.60;1.40;;;18.80;99.90;;;;;;5072879;28;20549;-81
2022/08/22 11:10:25;;;;;;;1.50;0.90;;;18.50;99.90;;;;;;5077452;28;21070;-80
2022/08/22 11:13:12;;;;;;;1.13;0.90;;;18.60;99.90;;;;;;5080272;28;20982;-84
2022/08/22 11:15:54;;;;;;;1.90;1.30;;;18.50;99.90;;;;;;5076502;28;20472;-81
2022/08/22 11:18:35;;;;;;;1.00;1.00;;;18.50;99.90;;;;;;5071885;28;20517;-81
2022/08/22 11:21:05;;;;;;;1.07;0.80;;;18.40;99.90;;;;;;5079570;28;20462;-81
2022/08/22 11:23:47;;;;;;;2.40;0.63;;;18.50;99.90;;;;;;5088617;28;20929;-81
2022/08/22 11:26:30;;;;;;;1.47;0.80;;;18.40;99.90;;;;;;5079249;28;20504;-78
2022/08/22 11:29:23;;;;;;;2.70;0.90;;;18.20;99.90;;;;;;5074863;28;20532;-80
2022/08/22 11:31:58;;;;;;;0.93;0.87;;;18.20;99.90;;;;;;5077172;28;20458;-80
2022/08/22 11:34:44;;;;;;;0.60;0.60;;;18.10;99.90;;;;;;5078739;28;20470;-79
2022/08/22 11:37:21;;;;;;;1.33;1.10;;;18.30;99.90;;;;;;5077281;28;20458;-84
2022/08/22 11:40:04;;;;;;;1.67;1.00;;;18.60;99.90;;;;;;5081035;28;20458;-84
2022/08/22 11:42:42;;;;;;;0.90;0.67;;;18.60;99.90;;;;;;5075078;28;21058;-84
2022/08/22 11:45:18;;;;;;;1.27;0.60;;;18.40;99.90;;;;;;5080515;28;20487;-83
2022/08/22 11:47:52;;;;;;;0.60;0.60;;;18.30;99.90;;;;;;5079904;28;20462;-83
2022/08/22 11:50:31;;;;;;;2.40;0.83;;;18.20;99.90;;;;;;5078993;28;21084;-82
2022/08/22 11:53:19;;;;;;;10.03;1.00;;;18.00;99.90;;;;;;5067292;28;20463;-82
2022/08/22 11:55:56;;;;;;;1.77;1.20;;;18.00;99.90;;;;;;5078783;28;20980;-82
2022/08/22 11:58:35;;;;;;;0.60;0.60;;;17.90;99.90;;;;;;5071559;28;21020;-81
2022/08/22 12:01:11;;;;;;;2.20;0.70;;;17.80;99.90;;;;;;5067695;28;21015;-81
2022/08/22 12:03:48;;;;;;;2.07;0.80;;;17.50;99.90;;;;;;5081055;28;20481;-81
2022/08/22 12:06:34;;;;;;;1.37;0.80;;;17.40;99.90;;;;;;5071534;28;20462;-84
2022/08/22 12:09:21;;;;;;;1.53;0.90;;;17.30;99.90;;;;;;5076473;28;21189;-81
2022/08/22 12:12:01;;;;;;;1.83;0.97;;;17.20;99.90;;;;;;5072770;28;20541;-85
2022/08/22 12:14:36;;;;;;;0.67;0.67;;;17.20;99.90;;;;;;5066882;28;20471;-81
2022/08/22 12:17:21;;;;;;;1.50;0.90;;;17.40;99.90;;;;;;5070976;28;20933;-82
2022/08/22 12:20:01;;;;;;;1.90;0.90;;;17.20;99.90;;;;;;5073041;28;20516;-81
2022/08/22 12:22:57;;;;;;;2.70;0.70;;;17.20;99.90;;;;;;5074999;28;20915;-83
2022/08/22 12:25:44;;;;;;;1.27;0.80;;;17.20;99.90;;;;;;5076901;28;21138;-84
2022/08/22 12:28:23;;;;;;;0.70;0.70;;;17.20;99.90;;;;;;5072825;28;20479;-84
2022/08/22 12:31:02;;;;;;;1.20;0.63;;;17.30;99.90;;;;;;5065546;28;20482;-84
2022/08/22 12:33:56;;;;;;;0.60;0.60;;;17.30;99.90;;;;;;5077023;28;20468;-81
2022/08/22 12:36:41;;;;;;;1.63;0.70;;;17.30;99.90;;;;;;5065672;28;20459;-81
2022/08/22 12:39:43;;;;;;;0.80;0.70;;;17.20;99.90;;;;;;5070475;28;20470;-81
2022/08/22 12:42:22;;;;;;;0.90;0.50;;;17.10;99.90;;;;;;5037383;28;20493;-85
2022/08/22 12:45:18;;;;;;;0.60;0.60;;;17.30;99.90;;;;;;5065071;28;20938;-84
2022/08/22 12:47:56;;;;;;;1.33;0.50;;;17.30;99.90;;;;;;5065933;28;21006;-85
2022/08/22 12:50:38;;;;;;;0.50;0.50;;;17.20;99.90;;;;;;5080061;28;20533;-81
2022/08/22 12:53:35;;;;;;;0.50;0.40;;;17.10;99.90;;;;;;5082358;28;20443;-83
2022/08/22 12:56:12;;;;;;;0.70;0.50;;;17.20;99.90;;;;;;5079371;28;20981;-81
2022/08/22 12:58:56;;;;;;;1.27;0.60;;;17.00;99.90;;;;;;5079807;28;20453;-81
2022/08/22 13:01:24;;;;;;;0.50;0.50;;;16.80;99.90;;;;;;5086263;28;20442;-81
2022/08/22 13:03:57;;;;;;;1.00;0.60;;;16.60;99.90;;;;;;5083015;28;20570;-85
2022/08/22 13:06:59;;;;;;;1.93;0.70;;;16.60;99.90;;;;;;5075781;28;20551;-82
2022/08/22 13:09:29;;;;;;;0.80;0.70;;;16.60;99.90;;;;;;5076330;28;20988;-81
2022/08/22 13:12:03;;;;;;;0.90;0.60;;;16.70;99.90;;;;;;5072131;28;20466;-81
2022/08/22 13:14:33;;;;;;;0.60;0.40;;;16.80;99.90;;;;;;5081715;28;20463;-81
2022/08/22 13:17:06;;;;;;;0.90;0.60;;;16.80;99.90;;;;;;5078111;28;20471;-82
2022/08/22 13:19:43;;;;;;;1.13;0.80;;;16.50;99.90;;;;;;5076156;28;20463;-80
2022/08/22 13:22:17;;;;;;;0.70;0.57;;;16.50;99.90;;;;;;5079745;28;20464;-81
2022/08/22 13:24:50;;;;;;;1.37;0.63;;;16.60;99.90;;;;;;5080624;28;20483;-84
2022/08/22 13:27:23;;;;;;;0.60;0.57;;;16.50;99.90;;;;;;5083453;28;20984;-85
2022/08/22 13:29:55;;;;;;;0.57;0.50;;;16.50;99.90;;;;;;5075362;28;20463;-84
2022/08/22 13:32:30;;;;;;;1.57;0.70;;;16.60;99.90;;;;;;5082498;28;20474;-81
2022/08/22 13:34:58;;;;;;;1.00;0.60;;;16.60;99.90;;;;;;5072163;28;20520;-81
2022/08/22 13:37:31;;;;;;;0.60;0.47;;;16.70;99.90;;;;;;5082577;28;20926;-81
2022/08/22 13:40:02;;;;;;;1.23;0.43;;;16.70;99.90;;;;;;5076860;28;20485;-84
2022/08/22 13:42:33;;;;;;;0.73;0.60;;;16.80;99.90;;;;;;5071013;28;20465;-81
2022/08/22 13:45:04;;;;;;;0.50;0.50;;;16.90;99.90;;;;;;5072550;28;20495;-83
2022/08/22 13:47:35;;;;;;;1.23;0.40;;;16.90;99.90;;;;;;5074302;28;20555;-85